Time;durP1;ratioP1;P1;durP2;ratioP2;P2;SDS_P1;SDS_P2;PMS_P1;PMS_P2;Temp;Humidity;BMP_temperature;BMP_pressure;BME280_temperature;BME280_humidity;BME280_pressure;Samples;Min_cycle;Max_cycle;Signal;HPM_P1;HPM_P2
2022/01/21 00:01:58;;;;;;;14.57;3.05;;;;;;;;;;4991441;28;20177;-48
2022/01/21 00:04:24;;;;;;;5.10;2.97;;;;;;;;;;4992628;28;20200;-48
2022/01/21 00:06:50;;;;;;;6.70;3.30;;;;;;;;;;4992598;28;20431;-48
2022/01/21 00:09:16;;;;;;;8.70;2.47;;;;;;;;;;4993065;28;20404;-48
2022/01/21 00:11:42;;;;;;;8.20;2.60;;;;;;;;;;4987440;28;20465;-47
2022/01/21 00:14:10;;;;;;;7.05;2.63;;;;;;;;;;4979019;28;20451;-47
2022/01/21 00:16:38;;;;;;;3.95;3.30;;;;;;;;;;4992511;28;20165;-47
2022/01/21 00:19:09;;;;;;;9.98;3.70;;;;;;;;;;4992404;28;20258;-47
2022/01/21 00:30:13;;;;;;;17.63;3.72;;;;;;;;;;4991906;28;20179;-48
2022/01/21 00:32:40;;;;;;;13.38;3.47;;;;;;;;;;4991897;28;20215;-49
2022/01/21 00:35:07;;;;;;;5.57;4.93;;;;;;;;;;4991986;28;20645;-48
2022/01/21 00:37:33;;;;;;;12.85;4.35;;;;;;;;;;4992040;28;20165;-48
2022/01/21 00:40:00;;;;;;;12.20;4.03;;;;;;;;;;4991856;28;20176;-47
2022/01/21 00:42:46;;;;;;;11.60;3.50;;;;;;;;;;4988236;28;20232;-47
2022/01/21 00:45:14;;;;;;;13.35;4.10;;;;;;;;;;4991845;28;20244;-49
2022/01/21 00:47:40;;;;;;;11.90;4.63;;;;;;;;;;4991894;28;20711;-48
2022/01/21 00:50:08;;;;;;;8.15;4.25;;;;;;;;;;4991759;28;20205;-48
2022/01/21 00:52:34;;;;;;;3.70;3.20;;;;;;;;;;4991683;28;20197;-48
2022/01/21 00:55:00;;;;;;;7.88;3.45;;;;;;;;;;4991693;28;20188;-47
2022/01/21 00:57:26;;;;;;;8.70;3.97;;;;;;;;;;4991753;28;20507;-48
2022/01/21 00:59:54;;;;;;;10.93;3.97;;;;;;;;;;4991338;28;20458;-47
2022/01/21 01:02:20;;;;;;;3.45;3.15;;;;;;;;;;4991727;28;20404;-47
2022/01/21 01:04:46;;;;;;;15.87;4.20;;;;;;;;;;4991758;28;20788;-47
2022/01/21 01:07:12;;;;;;;23.47;3.73;;;;;;;;;;4991947;28;20761;-48
2022/01/21 01:09:38;;;;;;;11.07;3.83;;;;;;;;;;4997590;28;20408;-48
2022/01/21 01:12:18;;;;;;;12.57;3.35;;;;;;;;;;4997034;28;20451;-49
2022/01/21 01:20:13;;;;;;;12.38;4.13;;;;;;;;;;4997920;28;20227;-48
2022/01/21 01:22:54;;;;;;;11.13;3.35;;;;;;;;;;4997919;28;20544;-47
2022/01/21 01:28:05;;;;;;;4.97;3.55;;;;;;;;;;4998148;28;20236;-47
2022/01/21 01:30:33;;;;;;;14.20;4.43;;;;;;;;;;4997774;28;20169;-47
2022/01/21 01:33:00;;;;;;;10.57;3.67;;;;;;;;;;4997671;28;20240;-47
2022/01/21 01:35:28;;;;;;;12.10;3.75;;;;;;;;;;4997966;28;20256;-49
2022/01/21 01:40:26;;;;;;;11.67;3.60;;;;;;;;;;4997927;28;20702;-47
2022/01/21 01:50:55;;;;;;;4.47;4.07;;;;;;;;;;4997851;28;20259;-47
2022/01/21 01:53:24;;;;;;;9.25;3.20;;;;;;;;;;4997869;28;20243;-47
2022/01/21 01:55:50;;;;;;;11.38;4.18;;;;;;;;;;4998113;28;20186;-47
2022/01/21 01:58:16;;;;;;;6.63;3.88;;;;;;;;;;4998044;28;20211;-47
2022/01/21 02:00:43;;;;;;;7.37;3.70;;;;;;;;;;4996263;28;20176;-47
2022/01/21 02:03:10;;;;;;;7.45;4.00;;;;;;;;;;4997541;28;20934;-47
2022/01/21 02:05:36;;;;;;;17.15;5.18;;;;;;;;;;4997845;28;20231;-47
2022/01/21 02:08:02;;;;;;;7.22;3.97;;;;;;;;;;4997244;28;20636;-48
2022/01/21 02:10:28;;;;;;;19.52;4.65;;;;;;;;;;4997387;28;20169;-48
2022/01/21 02:13:06;;;;;;;5.53;4.10;;;;;;;;;;4994668;28;20204;-47
2022/01/21 02:15:35;;;;;;;8.93;3.35;;;;;;;;;;4997549;28;21010;-49
2022/01/21 02:23:30;;;;;;;11.52;4.15;;;;;;;;;;4994284;28;20282;-48
2022/01/21 02:25:56;;;;;;;9.70;3.90;;;;;;;;;;4994462;28;20179;-48
2022/01/21 02:28:23;;;;;;;14.93;4.63;;;;;;;;;;4994421;28;20251;-48
2022/01/21 02:30:52;;;;;;;12.18;3.67;;;;;;;;;;4994158;28;20432;-48
2022/01/21 02:33:18;;;;;;;9.30;4.28;;;;;;;;;;4994074;28;20193;-48
2022/01/21 02:35:44;;;;;;;9.67;3.60;;;;;;;;;;4994114;28;20221;-48
2022/01/21 02:38:10;;;;;;;8.00;4.30;;;;;;;;;;4994208;28;20404;-47
2022/01/21 02:40:36;;;;;;;5.63;3.47;;;;;;;;;;4991114;28;20438;-47
2022/01/21 02:43:02;;;;;;;7.73;3.77;;;;;;;;;;4993978;28;20408;-47
2022/01/21 02:45:28;;;;;;;8.43;3.70;;;;;;;;;;4994080;28;20967;-48
2022/01/21 02:47:54;;;;;;;9.10;3.80;;;;;;;;;;4994246;28;20252;-48
2022/01/21 02:50:20;;;;;;;8.48;3.70;;;;;;;;;;4993744;28;20407;-48
2022/01/21 02:53:08;;;;;;;6.28;3.10;;;;;;;;;;4993820;28;20196;-48
2022/01/21 02:55:34;;;;;;;11.27;3.80;;;;;;;;;;4993914;28;20165;-48
2022/01/21 02:58:00;;;;;;;14.30;3.90;;;;;;;;;;4993881;28;20177;-47
2022/01/21 03:00:26;;;;;;;8.33;4.67;;;;;;;;;;4993567;28;20256;-49
2022/01/21 03:02:52;;;;;;;10.93;3.60;;;;;;;;;;4993583;28;20416;-47
2022/01/21 03:05:19;;;;;;;14.40;4.05;;;;;;;;;;4993825;28;20408;-47
2022/01/21 03:07:45;;;;;;;9.10;4.22;;;;;;;;;;4993752;28;20264;-47
2022/01/21 03:10:12;;;;;;;15.43;4.03;;;;;;;;;;4989114;28;20184;-49
2022/01/21 03:12:38;;;;;;;20.15;4.78;;;;;;;;;;4993554;28;20237;-47
2022/01/21 03:15:04;;;;;;;8.70;3.75;;;;;;;;;;4993614;28;20189;-48
2022/01/21 03:17:30;;;;;;;9.98;4.03;;;;;;;;;;4993620;28;20629;-48
2022/01/21 03:19:56;;;;;;;13.70;4.93;;;;;;;;;;4993391;28;20161;-47
2022/01/21 03:22:22;;;;;;;5.63;3.77;;;;;;;;;;4993461;28;20954;-49
2022/01/21 03:24:48;;;;;;;9.77;4.83;;;;;;;;;;4993263;28;20450;-48
2022/01/21 03:27:14;;;;;;;13.97;5.60;;;;;;;;;;4993302;28;20408;-47
2022/01/21 03:29:40;;;;;;;18.90;4.57;;;;;;;;;;4993074;28;20499;-47
2022/01/21 03:32:06;;;;;;;9.13;4.25;;;;;;;;;;4992768;28;20444;-48
2022/01/21 03:34:32;;;;;;;5.78;4.53;;;;;;;;;;4993069;28;20215;-48
2022/01/21 03:36:58;;;;;;;20.83;4.10;;;;;;;;;;4992596;28;20580;-48
2022/01/21 03:39:24;;;;;;;14.30;4.63;;;;;;;;;;4989132;28;20460;-47
2022/01/21 03:41:50;;;;;;;7.63;5.20;;;;;;;;;;4992955;28;20404;-48
2022/01/21 03:44:16;;;;;;;8.60;4.00;;;;;;;;;;4992902;28;20429;-49
2022/01/21 03:46:42;;;;;;;8.80;3.80;;;;;;;;;;4992970;28;21026;-47
2022/01/21 03:49:09;;;;;;;8.20;4.50;;;;;;;;;;4992763;28;20408;-47
2022/01/21 03:51:35;;;;;;;9.23;4.28;;;;;;;;;;4992816;28;20189;-49
2022/01/21 03:54:01;;;;;;;10.65;4.32;;;;;;;;;;4992638;28;20270;-49
2022/01/21 03:56:27;;;;;;;14.52;4.90;;;;;;;;;;4992709;28;20797;-47
2022/01/21 03:58:53;;;;;;;14.35;4.65;;;;;;;;;;4992479;28;20192;-47
2022/01/21 04:01:20;;;;;;;10.70;4.27;;;;;;;;;;4992620;28;20196;-48
2022/01/21 04:03:46;;;;;;;12.20;3.78;;;;;;;;;;4992455;28;20452;-47
2022/01/21 04:06:12;;;;;;;14.23;5.00;;;;;;;;;;4992583;28;20161;-48
2022/01/21 04:08:38;;;;;;;9.27;3.90;;;;;;;;;;4989056;28;20860;-48
2022/01/21 04:11:04;;;;;;;7.27;3.90;;;;;;;;;;4991084;28;20428;-47
2022/01/21 04:13:30;;;;;;;6.93;4.03;;;;;;;;;;4992161;28;20463;-47
2022/01/21 04:15:57;;;;;;;8.97;3.90;;;;;;;;;;4992209;28;20397;-47
2022/01/21 04:18:23;;;;;;;8.73;5.38;;;;;;;;;;4992353;28;20435;-49
2022/01/21 04:20:50;;;;;;;16.48;4.50;;;;;;;;;;4992178;28;20157;-47
2022/01/21 04:23:17;;;;;;;6.45;3.50;;;;;;;;;;4992118;28;20271;-49
2022/01/21 04:25:43;;;;;;;7.88;3.88;;;;;;;;;;4992172;28;20180;-47
2022/01/21 04:28:09;;;;;;;8.18;3.50;;;;;;;;;;4992326;28;20177;-48
2022/01/21 04:30:35;;;;;;;7.25;3.83;;;;;;;;;;4992016;28;20172;-48
2022/01/21 04:33:01;;;;;;;9.98;4.07;;;;;;;;;;4992044;28;20569;-47
2022/01/21 04:35:27;;;;;;;8.23;4.50;;;;;;;;;;4992251;28;20625;-47
2022/01/21 04:37:57;;;;;;;8.73;4.40;;;;;;;;;;4991340;28;20170;-48
2022/01/21 04:40:27;;;;;;;12.70;3.72;;;;;;;;;;4989885;28;20177;-47
2022/01/21 04:48:23;;;;;;;6.15;4.63;;;;;;;;;;4992027;28;20209;-48
2022/01/21 04:50:57;;;;;;;7.93;4.03;;;;;;;;;;4991765;28;20205;-47
2022/01/21 04:53:24;;;;;;;5.82;3.65;;;;;;;;;;4991716;28;20514;-48
2022/01/21 04:55:50;;;;;;;10.15;4.65;;;;;;;;;;4991841;28;20193;-47
2022/01/21 04:58:16;;;;;;;8.30;4.40;;;;;;;;;;4991777;28;20225;-47
2022/01/21 05:00:43;;;;;;;7.63;4.35;;;;;;;;;;4991530;28;20436;-48
2022/01/21 05:03:10;;;;;;;20.92;5.40;;;;;;;;;;4991565;28;20192;-49
2022/01/21 05:05:36;;;;;;;20.73;8.18;;;;;;;;;;4991721;28;20511;-47
2022/01/21 05:08:06;;;;;;;10.23;5.20;;;;;;;;;;4987601;28;20172;-47
2022/01/21 05:10:32;;;;;;;8.75;5.70;;;;;;;;;;4991447;28;20679;-48
2022/01/21 05:12:58;;;;;;;20.88;6.70;;;;;;;;;;4991418;28;20201;-48
2022/01/21 05:17:50;;;;;;;14.23;5.40;;;;;;;;;;4991610;28;20272;-48
2022/01/21 05:20:16;;;;;;;15.47;6.10;;;;;;;;;;4991438;28;20408;-47
2022/01/21 05:22:43;;;;;;;20.00;6.00;;;;;;;;;;4991519;28;20416;-48
2022/01/21 05:25:16;;;;;;;14.30;6.45;;;;;;;;;;4991418;28;20211;-48
2022/01/21 05:27:43;;;;;;;14.10;5.60;;;;;;;;;;4991577;28;20175;-49
2022/01/21 05:30:09;;;;;;;17.17;6.60;;;;;;;;;;4991275;28;20177;-48
2022/01/21 05:32:35;;;;;;;9.23;5.07;;;;;;;;;;4987319;28;20217;-47
2022/01/21 05:35:01;;;;;;;20.30;6.15;;;;;;;;;;4991548;28;20280;-47
2022/01/21 05:37:27;;;;;;;12.93;5.97;;;;;;;;;;4991512;28;20256;-49
2022/01/21 05:39:54;;;;;;;10.40;5.43;;;;;;;;;;4991174;28;20459;-48
2022/01/21 05:42:20;;;;;;;9.10;5.50;;;;;;;;;;4991293;28;20924;-47
2022/01/21 05:47:13;;;;;;;13.45;5.80;;;;;;;;;;4991353;28;20592;-48
2022/01/21 05:49:40;;;;;;;7.85;5.55;;;;;;;;;;4991190;28;20656;-47
2022/01/21 05:52:16;;;;;;;12.68;5.80;;;;;;;;;;4991198;28;20289;-49
2022/01/21 05:54:43;;;;;;;6.90;5.15;;;;;;;;;;4993092;28;20209;-47
2022/01/21 05:57:12;;;;;;;13.15;6.47;;;;;;;;;;4994977;28;20176;-47
2022/01/21 05:59:38;;;;;;;20.30;7.05;;;;;;;;;;4994881;28;20974;-47
2022/01/21 06:02:05;;;;;;;16.97;5.90;;;;;;;;;;4991337;28;20189;-47
2022/01/21 06:04:31;;;;;;;7.43;5.00;;;;;;;;;;4995095;28;20424;-47
2022/01/21 06:06:58;;;;;;;17.67;6.38;;;;;;;;;;4995053;28;20177;-48
2022/01/21 06:09:24;;;;;;;8.65;5.28;;;;;;;;;;4995368;28;20173;-47
2022/01/21 06:11:51;;;;;;;10.35;5.55;;;;;;;;;;4993463;28;20598;-48
2022/01/21 06:14:17;;;;;;;20.67;5.50;;;;;;;;;;4994591;28;20618;-48
2022/01/21 06:16:43;;;;;;;13.27;6.22;;;;;;;;;;4994566;28;20180;-48
2022/01/21 06:19:09;;;;;;;8.75;5.10;;;;;;;;;;4994257;28;20169;-48
2022/01/21 06:21:35;;;;;;;5.70;5.07;;;;;;;;;;4973927;28;20969;-48
2022/01/21 06:24:01;;;;;;;8.73;5.53;;;;;;;;;;4974777;28;20976;-47
2022/01/21 06:26:27;;;;;;;11.60;5.60;;;;;;;;;;4975114;28;20397;-49
2022/01/21 06:28:53;;;;;;;10.40;4.80;;;;;;;;;;4974882;28;20480;-48
2022/01/21 06:31:19;;;;;;;15.50;6.10;;;;;;;;;;4974973;28;20451;-49
2022/01/21 06:33:44;;;;;;;10.57;6.10;;;;;;;;;;4974898;28;20421;-49
2022/01/21 06:36:11;;;;;;;10.70;5.30;;;;;;;;;;4992284;28;20428;-48
2022/01/21 06:38:37;;;;;;;10.05;4.68;;;;;;;;;;4994321;28;20508;-48
2022/01/21 06:41:02;;;;;;;8.82;4.20;;;;;;;;;;4993984;28;20590;-48
2022/01/21 06:43:29;;;;;;;7.87;4.90;;;;;;;;;;4994117;28;20235;-48
2022/01/21 06:45:54;;;;;;;7.45;4.45;;;;;;;;;;4994085;28;20406;-48
2022/01/21 06:48:20;;;;;;;8.47;4.20;;;;;;;;;;4994046;28;20168;-48
2022/01/21 06:50:46;;;;;;;14.10;4.80;;;;;;;;;;4994045;28;20849;-48
2022/01/21 06:53:12;;;;;;;12.00;4.17;;;;;;;;;;4993893;28;20263;-48
2022/01/21 06:55:39;;;;;;;12.67;4.87;;;;;;;;;;4989021;28;20950;-48
2022/01/21 06:58:05;;;;;;;13.80;3.92;;;;;;;;;;4993777;28;20448;-48
2022/01/21 07:00:31;;;;;;;5.85;3.92;;;;;;;;;;4993604;28;20610;-48
2022/01/21 07:02:57;;;;;;;9.07;4.73;;;;;;;;;;4993653;28;20173;-48
2022/01/21 07:05:25;;;;;;;8.80;4.88;;;;;;;;;;4993280;28;20907;-49
2022/01/21 07:07:51;;;;;;;8.00;4.90;;;;;;;;;;4993505;28;20173;-48
2022/01/21 07:10:17;;;;;;;11.02;5.85;;;;;;;;;;4993554;28;20173;-49
2022/01/21 07:12:44;;;;;;;10.80;5.03;;;;;;;;;;4993521;28;20197;-48
2022/01/21 07:15:11;;;;;;;15.73;5.05;;;;;;;;;;4993558;28;20221;-48
2022/01/21 07:17:37;;;;;;;12.65;5.75;;;;;;;;;;4993558;28;20169;-48
2022/01/21 07:20:04;;;;;;;9.93;4.57;;;;;;;;;;4989612;28;20179;-48
2022/01/21 07:22:31;;;;;;;8.20;4.68;;;;;;;;;;4993529;28;20188;-48
2022/01/21 07:24:57;;;;;;;8.48;4.80;;;;;;;;;;4993431;28;20243;-48
2022/01/21 07:27:23;;;;;;;7.22;5.38;;;;;;;;;;4993584;28;20165;-48
2022/01/21 07:29:49;;;;;;;11.20;5.50;;;;;;;;;;4993146;28;20734;-49
2022/01/21 07:32:15;;;;;;;10.40;5.60;;;;;;;;;;4993119;28;20571;-48
2022/01/21 07:34:41;;;;;;;9.15;5.60;;;;;;;;;;4993245;28;20419;-48
2022/01/21 07:37:07;;;;;;;11.40;5.18;;;;;;;;;;4993175;28;20161;-48
2022/01/21 07:39:33;;;;;;;10.77;4.75;;;;;;;;;;4992988;28;20665;-48
2022/01/21 07:41:59;;;;;;;8.90;5.13;;;;;;;;;;4993034;28;20175;-48
2022/01/21 07:44:25;;;;;;;14.30;5.40;;;;;;;;;;4993084;28;20239;-48
2022/01/21 07:46:51;;;;;;;16.37;4.70;;;;;;;;;;4993098;28;20184;-48
2022/01/21 07:49:17;;;;;;;4.87;4.20;;;;;;;;;;4990441;28;20451;-47
2022/01/21 07:51:44;;;;;;;10.90;4.60;;;;;;;;;;4992808;28;20522;-48
2022/01/21 07:54:11;;;;;;;15.38;4.82;;;;;;;;;;4992974;28;20194;-48
2022/01/21 07:56:37;;;;;;;10.57;5.70;;;;;;;;;;4992720;28;20165;-48
2022/01/21 07:59:05;;;;;;;5.85;5.03;;;;;;;;;;4992540;28;20170;-48
2022/01/21 08:01:31;;;;;;;10.57;5.97;;;;;;;;;;4992832;28;20638;-47
2022/01/21 08:03:57;;;;;;;10.02;6.03;;;;;;;;;;4992738;28;20189;-48
2022/01/21 08:06:24;;;;;;;11.13;4.93;;;;;;;;;;4992692;28;20172;-48
2022/01/21 08:08:50;;;;;;;11.77;5.15;;;;;;;;;;4992701;28;20462;-48
2022/01/21 08:11:16;;;;;;;12.63;6.25;;;;;;;;;;4992641;28;20202;-48
2022/01/21 08:13:42;;;;;;;13.27;5.90;;;;;;;;;;4992487;28;20232;-48
2022/01/21 08:16:08;;;;;;;6.20;5.60;;;;;;;;;;4992494;28;20460;-47
2022/01/21 08:18:36;;;;;;;15.20;6.53;;;;;;;;;;4991465;28;20264;-48
2022/01/21 08:21:01;;;;;;;13.70;6.63;;;;;;;;;;4988855;28;20424;-49
2022/01/21 08:23:27;;;;;;;12.97;6.50;;;;;;;;;;4992157;28;20211;-49
2022/01/21 08:25:53;;;;;;;9.30;6.03;;;;;;;;;;4992277;28;20409;-48
2022/01/21 08:28:19;;;;;;;12.33;6.17;;;;;;;;;;4992330;28;20443;-49
2022/01/21 08:30:45;;;;;;;17.08;6.38;;;;;;;;;;4992056;28;20972;-48
2022/01/21 08:33:11;;;;;;;12.03;6.43;;;;;;;;;;4992135;28;20279;-49
2022/01/21 08:35:37;;;;;;;15.50;6.60;;;;;;;;;;4992271;28;20406;-48
2022/01/21 08:38:04;;;;;;;13.27;6.80;;;;;;;;;;4992119;28;20404;-48
2022/01/21 08:40:30;;;;;;;12.48;5.70;;;;;;;;;;4991937;28;20400;-48
2022/01/21 08:42:56;;;;;;;8.80;5.60;;;;;;;;;;4992132;28;20589;-48
2022/01/21 08:45:22;;;;;;;17.20;9.07;;;;;;;;;;4992284;28;20184;-49
2022/01/21 08:47:49;;;;;;;12.90;5.90;;;;;;;;;;4992225;28;20400;-48
2022/01/21 08:50:18;;;;;;;19.92;6.43;;;;;;;;;;4982331;28;20656;-48
2022/01/21 08:52:44;;;;;;;12.20;6.05;;;;;;;;;;4972507;28;20300;-48
2022/01/21 08:55:12;;;;;;;11.75;6.63;;;;;;;;;;4972459;28;20201;-49
2022/01/21 08:57:41;;;;;;;15.48;6.90;;;;;;;;;;4972502;28;20251;-48
2022/01/21 09:00:09;;;;;;;12.30;6.07;;;;;;;;;;4972132;28;20192;-48
2022/01/21 09:02:35;;;;;;;10.68;6.80;;;;;;;;;;4978301;28;20185;-49
2022/01/21 09:05:01;;;;;;;10.35;5.95;;;;;;;;;;4978134;28;21352;-49
2022/01/21 09:07:27;;;;;;;20.52;6.53;;;;;;;;;;4981619;28;20240;-48
2022/01/21 09:09:53;;;;;;;12.33;6.27;;;;;;;;;;4981008;28;20185;-48
2022/01/21 09:12:19;;;;;;;15.10;6.17;;;;;;;;;;4985086;28;20463;-49
2022/01/21 09:14:45;;;;;;;17.25;6.07;;;;;;;;;;4976096;28;20445;-49
2022/01/21 09:17:11;;;;;;;15.02;5.70;;;;;;;;;;4988970;28;20181;-49
2022/01/21 09:19:37;;;;;;;10.27;6.30;;;;;;;;;;4991245;28;20240;-49
2022/01/21 09:22:03;;;;;;;21.47;7.50;;;;;;;;;;4991158;28;20664;-48
2022/01/21 09:24:31;;;;;;;13.00;6.07;;;;;;;;;;4991402;28;21107;-47
2022/01/21 09:26:57;;;;;;;10.82;6.35;;;;;;;;;;4986625;28;20188;-48
2022/01/21 09:29:23;;;;;;;6.80;5.73;;;;;;;;;;4992648;28;20176;-50
2022/01/21 09:31:49;;;;;;;8.73;5.50;;;;;;;;;;4994991;28;20538;-49
2022/01/21 09:34:15;;;;;;;14.05;5.35;;;;;;;;;;4995250;28;20423;-48
2022/01/21 09:36:42;;;;;;;9.45;5.60;;;;;;;;;;4995349;28;20307;-49
2022/01/21 09:39:08;;;;;;;13.32;6.05;;;;;;;;;;4994900;28;20176;-48
2022/01/21 09:41:35;;;;;;;9.63;5.50;;;;;;;;;;4994963;28;20172;-50
2022/01/21 09:44:03;;;;;;;7.72;5.55;;;;;;;;;;4995008;28;20188;-49
2022/01/21 09:46:35;;;;;;;6.85;5.20;;;;;;;;;;4995207;28;20169;-49
2022/01/21 09:49:08;;;;;;;17.83;6.18;;;;;;;;;;4994893;28;20176;-49
2022/01/21 09:51:37;;;;;;;9.95;5.68;;;;;;;;;;4995124;28;20165;-49
2022/01/21 09:54:07;;;;;;;9.75;4.93;;;;;;;;;;4995037;28;20199;-48
2022/01/21 09:56:34;;;;;;;13.10;5.10;;;;;;;;;;4991573;28;20595;-50
2022/01/21 09:59:01;;;;;;;9.95;6.10;;;;;;;;;;4995007;28;20220;-49
2022/01/21 10:01:27;;;;;;;10.82;5.38;;;;;;;;;;4995153;28;20173;-48
2022/01/21 10:03:54;;;;;;;11.50;5.40;;;;;;;;;;4994667;28;20189;-48
2022/01/21 10:06:24;;;;;;;6.07;4.35;;;;;;;;;;4994818;28;20165;-48
2022/01/21 10:08:51;;;;;;;13.77;6.05;;;;;;;;;;4994757;28;20165;-48
2022/01/21 10:11:19;;;;;;;7.95;5.25;;;;;;;;;;4994679;28;20626;-48
2022/01/21 10:13:47;;;;;;;14.88;5.50;;;;;;;;;;4994405;28;20224;-49
2022/01/21 10:16:13;;;;;;;12.23;6.03;;;;;;;;;;4994516;28;20187;-50
2022/01/21 10:18:41;;;;;;;14.80;6.73;;;;;;;;;;4994673;28;20633;-48
2022/01/21 10:21:11;;;;;;;6.97;6.28;;;;;;;;;;4995257;28;20453;-49
2022/01/21 10:23:38;;;;;;;10.30;6.50;;;;;;;;;;4993611;28;20205;-48
2022/01/21 10:26:06;;;;;;;11.48;5.80;;;;;;;;;;4991696;28;20641;-49
2022/01/21 10:28:33;;;;;;;9.45;6.70;;;;;;;;;;4993900;28;20173;-50
2022/01/21 10:31:05;;;;;;;10.07;8.32;;;;;;;;;;4993061;28;20173;-49
2022/01/21 10:33:31;;;;;;;17.83;7.88;;;;;;;;;;4992389;28;20320;-49
2022/01/21 10:36:08;;;;;;;15.07;6.03;;;;;;;;;;4992611;28;20455;-49
2022/01/21 10:38:38;;;;;;;11.55;6.30;;;;;;;;;;4994077;28;20392;-50
2022/01/21 10:41:05;;;;;;;7.47;5.25;;;;;;;;;;4993122;28;20223;-49
2022/01/21 10:43:31;;;;;;;9.25;5.95;;;;;;;;;;4994758;28;20675;-49
2022/01/21 10:45:58;;;;;;;7.40;5.47;;;;;;;;;;4994663;28;20174;-49
2022/01/21 10:48:25;;;;;;;6.10;4.90;;;;;;;;;;4989376;28;20417;-49
2022/01/21 10:51:09;;;;;;;6.78;4.80;;;;;;;;;;4974547;28;20932;-49
2022/01/21 10:53:38;;;;;;;8.53;4.60;;;;;;;;;;4974674;28;20250;-49
2022/01/21 10:56:09;;;;;;;9.57;4.53;;;;;;;;;;4973456;28;20443;-49
2022/01/21 10:58:43;;;;;;;13.83;5.33;;;;;;;;;;4993716;28;20419;-48
2022/01/21 11:01:13;;;;;;;14.27;6.00;;;;;;;;;;4993838;28;20400;-49
2022/01/21 11:03:57;;;;;;;14.17;5.60;;;;;;;;;;4993838;28;20828;-49
2022/01/21 11:06:26;;;;;;;11.20;6.30;;;;;;;;;;4994000;28;20419;-48
2022/01/21 11:09:11;;;;;;;8.00;5.43;;;;;;;;;;4994310;28;20416;-48
2022/01/21 11:11:37;;;;;;;9.13;6.03;;;;;;;;;;4994342;28;20773;-49
2022/01/21 11:14:09;;;;;;;11.43;5.90;;;;;;;;;;4994520;28;20421;-49
2022/01/21 11:16:36;;;;;;;11.00;5.90;;;;;;;;;;4994085;28;20406;-50
2022/01/21 11:19:08;;;;;;;8.93;5.77;;;;;;;;;;4993641;28;20469;-50
2022/01/21 11:21:39;;;;;;;10.43;5.83;;;;;;;;;;4993930;28;20486;-50
2022/01/21 11:24:06;;;;;;;6.73;5.30;;;;;;;;;;4993487;28;20463;-50
2022/01/21 11:26:32;;;;;;;11.63;5.20;;;;;;;;;;4991991;28;20914;-49
2022/01/21 11:28:58;;;;;;;10.17;5.07;;;;;;;;;;4993660;28;20403;-50
2022/01/21 11:31:27;;;;;;;10.53;5.93;;;;;;;;;;4993857;28;20437;-49
2022/01/21 11:33:53;;;;;;;10.37;5.27;;;;;;;;;;4993992;28;20438;-49
2022/01/21 11:36:19;;;;;;;14.30;6.17;;;;;;;;;;4993984;28;20414;-49
2022/01/21 11:38:48;;;;;;;10.60;5.70;;;;;;;;;;4993601;28;20788;-49
2022/01/21 11:41:14;;;;;;;8.47;4.93;;;;;;;;;;4993859;28;20406;-49
2022/01/21 11:43:48;;;;;;;12.33;5.60;;;;;;;;;;4993151;28;20421;-50
2022/01/21 11:48:54;;;;;;;15.03;6.97;;;;;;;;;;4993077;28;20411;-49
2022/01/21 11:51:22;;;;;;;10.33;4.50;;;;;;;;;;4992860;28;20411;-49
2022/01/21 11:53:49;;;;;;;6.83;4.30;;;;;;;;;;4992557;28;20512;-48
2022/01/21 11:56:35;;;;;;;5.87;4.37;;;;;;;;;;4985618;28;20492;-50
2022/01/21 11:59:11;;;;;;;10.00;4.93;;;;;;;;;;4992684;28;20397;-49
2022/01/21 12:01:47;;;;;;;9.87;5.00;;;;;;;;;;4992871;28;20781;-50
2022/01/21 12:04:15;;;;;;;6.70;4.97;;;;;;;;;;4993030;28;20412;-49
2022/01/21 12:06:41;;;;;;;19.20;6.27;;;;;;;;;;4970545;28;20521;-49
2022/01/21 12:09:09;;;;;;;6.47;4.80;;;;;;;;;;4973860;28;20453;-48
2022/01/21 12:11:39;;;;;;;12.90;5.40;;;;;;;;;;4973703;28;20423;-50
2022/01/21 12:14:28;;;;;;;12.07;5.47;;;;;;;;;;4973362;28;20430;-50
2022/01/21 12:17:11;;;;;;;12.40;5.80;;;;;;;;;;4974075;28;20434;-50
2022/01/21 12:19:38;;;;;;;9.33;4.80;;;;;;;;;;4973330;28;20403;-50
2022/01/21 12:22:17;;;;;;;11.17;4.57;;;;;;;;;;4974209;28;20429;-49
2022/01/21 12:24:45;;;;;;;8.32;5.65;;;;;;;;;;4973720;28;20455;-49
2022/01/21 12:27:13;;;;;;;7.22;4.65;;;;;;;;;;4990234;28;20291;-49
2022/01/21 12:29:39;;;;;;;8.02;5.53;;;;;;;;;;4993056;28;20180;-49
2022/01/21 12:32:31;;;;;;;7.90;4.50;;;;;;;;;;4993009;28;20198;-48
2022/01/21 12:35:01;;;;;;;10.20;4.95;;;;;;;;;;4992819;28;20232;-50
2022/01/21 12:37:49;;;;;;;7.22;4.68;;;;;;;;;;4989418;28;20761;-48
2022/01/21 12:40:31;;;;;;;15.85;4.93;;;;;;;;;;4972156;28;20182;-49
2022/01/21 12:42:57;;;;;;;9.90;4.70;;;;;;;;;;4973285;28;20261;-50
2022/01/21 12:45:24;;;;;;;10.30;4.60;;;;;;;;;;4973378;28;20252;-50
2022/01/21 12:47:50;;;;;;;9.98;5.15;;;;;;;;;;4973407;28;20483;-50
2022/01/21 12:50:30;;;;;;;6.73;4.10;;;;;;;;;;4973194;28;20257;-49
2022/01/21 12:58:14;;;;;;;17.48;5.00;;;;;;;;;;4954342;29;20670;-49
2022/01/21 13:00:40;;;;;;;13.98;5.05;;;;;;;;;;4953948;28;20178;-49
2022/01/21 13:03:15;;;;;;;7.35;4.32;;;;;;;;;;4953879;28;20174;-48
2022/01/21 13:05:44;;;;;;;10.00;3.70;;;;;;;;;;4984896;28;20188;-50
2022/01/21 13:08:31;;;;;;;13.88;4.28;;;;;;;;;;4992823;28;20165;-49
2022/01/21 13:10:57;;;;;;;7.57;4.85;;;;;;;;;;4992330;28;20223;-49
2022/01/21 13:13:45;;;;;;;7.90;3.70;;;;;;;;;;4991494;28;20842;-49
2022/01/21 13:16:09;;;;;;;13.90;5.13;;;;;;;;;;4992843;28;20408;-50
2022/01/21 13:18:37;;;;;;;11.03;4.40;;;;;;;;;;4993577;28;20200;-49
2022/01/21 13:21:08;;;;;;;7.95;3.67;;;;;;;;;;4992972;28;20480;-48
2022/01/21 13:23:36;;;;;;;11.30;4.20;;;;;;;;;;4992642;28;20609;-49
2022/01/21 13:26:17;;;;;;;8.48;4.90;;;;;;;;;;4990555;28;20181;-48
2022/01/21 13:28:54;;;;;;;12.07;5.00;;;;;;;;;;4953575;29;20170;-49
2022/01/21 13:31:21;;;;;;;9.95;4.15;;;;;;;;;;4953576;29;20669;-48
2022/01/21 13:33:47;;;;;;;9.68;3.83;;;;;;;;;;4953830;29;20209;-49
2022/01/21 13:36:13;;;;;;;10.07;3.90;;;;;;;;;;4953922;28;20173;-48
2022/01/21 13:38:42;;;;;;;8.43;4.60;;;;;;;;;;4974383;28;20284;-48
2022/01/21 13:41:12;;;;;;;6.32;4.05;;;;;;;;;;4986567;28;20181;-49
2022/01/21 13:43:39;;;;;;;10.27;4.18;;;;;;;;;;4992381;28;20606;-49
2022/01/21 13:46:09;;;;;;;7.43;3.63;;;;;;;;;;4992530;28;20535;-49
2022/01/21 13:48:36;;;;;;;6.40;3.50;;;;;;;;;;4992567;28;20196;-48
2022/01/21 13:51:04;;;;;;;9.15;3.45;;;;;;;;;;4992298;28;20177;-50
2022/01/21 13:53:30;;;;;;;10.13;3.95;;;;;;;;;;4992822;28;20200;-48
2022/01/21 13:55:57;;;;;;;15.48;4.57;;;;;;;;;;4992546;28;20172;-51
2022/01/21 13:58:24;;;;;;;8.00;4.28;;;;;;;;;;4992463;28;20197;-49
2022/01/21 14:00:50;;;;;;;6.32;4.60;;;;;;;;;;4992074;28;20252;-49
2022/01/21 14:03:29;;;;;;;5.60;3.70;;;;;;;;;;4991967;28;20309;-49
2022/01/21 14:06:02;;;;;;;7.95;4.18;;;;;;;;;;4992172;28;20415;-49
2022/01/21 14:08:47;;;;;;;5.47;4.43;;;;;;;;;;4991954;28;20204;-50
2022/01/21 14:11:13;;;;;;;10.30;5.13;;;;;;;;;;4987781;28;20189;-48
2022/01/21 14:13:46;;;;;;;5.70;4.10;;;;;;;;;;4991386;28;20197;-49
2022/01/21 14:16:14;;;;;;;12.05;4.40;;;;;;;;;;4994010;28;20462;-48
2022/01/21 14:18:41;;;;;;;12.95;4.47;;;;;;;;;;4995426;28;20867;-50
2022/01/21 14:21:17;;;;;;;5.22;4.60;;;;;;;;;;4995169;28;20166;-49
2022/01/21 14:23:44;;;;;;;11.90;5.07;;;;;;;;;;4995235;28;20639;-49
2022/01/21 14:26:11;;;;;;;8.05;4.63;;;;;;;;;;4993417;28;20185;-49
2022/01/21 14:28:38;;;;;;;13.85;5.65;;;;;;;;;;4995013;28;20275;-48
2022/01/21 14:31:04;;;;;;;9.48;5.20;;;;;;;;;;4994995;28;20752;-49
2022/01/21 14:33:42;;;;;;;10.70;5.30;;;;;;;;;;4994924;28;20709;-48
2022/01/21 14:36:15;;;;;;;13.50;4.97;;;;;;;;;;4994790;28;20169;-48
2022/01/21 14:38:51;;;;;;;12.32;5.07;;;;;;;;;;4994763;28;20180;-49
2022/01/21 14:41:18;;;;;;;11.10;6.00;;;;;;;;;;4994225;28;20608;-48
2022/01/21 14:43:55;;;;;;;7.30;6.15;;;;;;;;;;4994517;28;20216;-49
2022/01/21 14:46:25;;;;;;;9.52;6.82;;;;;;;;;;4994620;28;20219;-50
2022/01/21 14:48:57;;;;;;;11.85;7.40;;;;;;;;;;4994761;28;20177;-47
2022/01/21 14:51:31;;;;;;;13.20;8.45;;;;;;;;;;4995322;28;20180;-49
2022/01/21 14:54:08;;;;;;;14.80;7.80;;;;;;;;;;4995082;28;20604;-50
2022/01/21 14:56:34;;;;;;;11.15;9.73;;;;;;;;;;4992708;28;20681;-49
2022/01/21 14:59:14;;;;;;;11.60;8.80;;;;;;;;;;4994974;28;20255;-49
2022/01/21 15:01:57;;;;;;;14.65;9.30;;;;;;;;;;4995076;28;20400;-48
2022/01/21 15:04:23;;;;;;;17.73;9.13;;;;;;;;;;4994965;28;20181;-49
2022/01/21 15:06:49;;;;;;;17.63;8.97;;;;;;;;;;4995426;28;20169;-49
2022/01/21 15:09:15;;;;;;;12.90;8.93;;;;;;;;;;4995032;28;20400;-50
2022/01/21 15:11:58;;;;;;;16.60;9.93;;;;;;;;;;4994562;28;20404;-50
2022/01/21 15:14:27;;;;;;;17.33;9.05;;;;;;;;;;4994930;28;20212;-49
2022/01/21 15:16:58;;;;;;;17.33;9.30;;;;;;;;;;4994557;28;20231;-48
2022/01/21 15:19:35;;;;;;;23.13;10.05;;;;;;;;;;4994209;28;20609;-49
2022/01/21 15:22:02;;;;;;;15.35;9.45;;;;;;;;;;4994843;28;20728;-49
2022/01/21 15:24:28;;;;;;;16.65;10.00;;;;;;;;;;4992975;28;20861;-50
2022/01/21 15:26:54;;;;;;;14.23;8.25;;;;;;;;;;4993969;28;20252;-48
2022/01/21 15:29:20;;;;;;;23.83;9.38;;;;;;;;;;4994391;28;20173;-50
2022/01/21 15:31:47;;;;;;;18.52;8.07;;;;;;;;;;4994180;28;20215;-49
2022/01/21 15:34:13;;;;;;;25.45;8.75;;;;;;;;;;4993834;28;20227;-49